sensor_id;sensor_type;location;lat;lon;timestamp;P1;durP1;ratioP1;P2;durP2;ratioP2
75912;SDS011;64592;52.168;21.040;2023-05-07T00:03:00;8.00;;;3.90;;
75912;SDS011;64592;52.168;21.040;2023-05-07T00:08:02;5.32;;;3.90;;
75912;SDS011;64592;52.168;21.040;2023-05-07T00:13:05;4.90;;;3.13;;
75912;SDS011;64592;52.168;21.040;2023-05-07T00:18:10;7.93;;;3.60;;
75912;SDS011;64592;52.168;21.040;2023-05-07T00:23:12;5.35;;;3.90;;
75912;SDS011;64592;52.168;21.040;2023-05-07T00:28:28;5.22;;;3.42;;
75912;SDS011;64592;52.168;21.040;2023-05-07T00:33:31;4.90;;;3.20;;
75912;SDS011;64592;52.168;21.040;2023-05-07T00:38:35;5.97;;;3.92;;
75912;SDS011;64592;52.168;21.040;2023-05-07T00:43:39;5.80;;;4.32;;
75912;SDS011;64592;52.168;21.040;2023-05-07T00:48:40;8.30;;;4.40;;
75912;SDS011;64592;52.168;21.040;2023-05-07T00:53:42;8.52;;;4.25;;
75912;SDS011;64592;52.168;21.040;2023-05-07T00:58:46;5.43;;;4.03;;
75912;SDS011;64592;52.168;21.040;2023-05-07T01:03:48;5.07;;;3.50;;
75912;SDS011;64592;52.168;21.040;2023-05-07T01:08:50;7.43;;;4.00;;
75912;SDS011;64592;52.168;21.040;2023-05-07T01:13:57;8.50;;;4.88;;
75912;SDS011;64592;52.168;21.040;2023-05-07T01:19:01;8.82;;;4.68;;
75912;SDS011;64592;52.168;21.040;2023-05-07T01:24:05;7.60;;;5.28;;
75912;SDS011;64592;52.168;21.040;2023-05-07T01:29:08;7.50;;;4.15;;
75912;SDS011;64592;52.168;21.040;2023-05-07T01:34:10;7.45;;;4.57;;
75912;SDS011;64592;52.168;21.040;2023-05-07T01:39:17;8.40;;;5.03;;
75912;SDS011;64592;52.168;21.040;2023-05-07T01:44:20;6.88;;;4.00;;
75912;SDS011;64592;52.168;21.040;2023-05-07T01:49:23;7.93;;;4.18;;
75912;SDS011;64592;52.168;21.040;2023-05-07T01:54:27;7.20;;;4.13;;
75912;SDS011;64592;52.168;21.040;2023-05-07T01:59:29;5.32;;;3.60;;
75912;SDS011;64592;52.168;21.040;2023-05-07T02:04:33;7.70;;;3.92;;
75912;SDS011;64592;52.168;21.040;2023-05-07T02:09:38;6.18;;;3.72;;
75912;SDS011;64592;52.168;21.040;2023-05-07T02:14:41;6.97;;;4.50;;
75912;SDS011;64592;52.168;21.040;2023-05-07T02:19:43;7.40;;;4.05;;
75912;SDS011;64592;52.168;21.040;2023-05-07T02:24:46;6.30;;;4.40;;
75912;SDS011;64592;52.168;21.040;2023-05-07T02:29:49;6.20;;;3.40;;
75912;SDS011;64592;52.168;21.040;2023-05-07T02:34:51;5.45;;;3.85;;
75912;SDS011;64592;52.168;21.040;2023-05-07T02:39:55;5.07;;;3.35;;
75912;SDS011;64592;52.168;21.040;2023-05-07T02:44:56;6.28;;;4.15;;
75912;SDS011;64592;52.168;21.040;2023-05-07T02:50:00;5.55;;;3.15;;
75912;SDS011;64592;52.168;21.040;2023-05-07T02:55:05;5.55;;;3.40;;
75912;SDS011;64592;52.168;21.040;2023-05-07T03:00:12;5.72;;;3.70;;
75912;SDS011;64592;52.168;21.040;2023-05-07T03:05:15;5.95;;;3.78;;
75912;SDS011;64592;52.168;21.040;2023-05-07T03:10:19;6.00;;;3.95;;
75912;SDS011;64592;52.168;21.040;2023-05-07T03:15:22;5.03;;;4.00;;
75912;SDS011;64592;52.168;21.040;2023-05-07T03:20:24;4.45;;;3.60;;
75912;SDS011;64592;52.168;21.040;2023-05-07T03:25:27;5.63;;;3.50;;
75912;SDS011;64592;52.168;21.040;2023-05-07T03:30:30;6.00;;;3.28;;
75912;SDS011;64592;52.168;21.040;2023-05-07T03:35:33;4.75;;;3.25;;
75912;SDS011;64592;52.168;21.040;2023-05-07T03:40:36;5.43;;;3.88;;
75912;SDS011;64592;52.168;21.040;2023-05-07T03:45:37;8.25;;;4.78;;
75912;SDS011;64592;52.168;21.040;2023-05-07T03:50:39;6.80;;;3.78;;
75912;SDS011;64592;52.168;21.040;2023-05-07T03:55:42;5.78;;;3.35;;
75912;SDS011;64592;52.168;21.040;2023-05-07T04:00:44;5.40;;;3.60;;
75912;SDS011;64592;52.168;21.040;2023-05-07T04:05:52;5.40;;;3.70;;
75912;SDS011;64592;52.168;21.040;2023-05-07T04:10:56;6.35;;;3.78;;
75912;SDS011;64592;52.168;21.040;2023-05-07T04:15:58;6.10;;;3.42;;
75912;SDS011;64592;52.168;21.040;2023-05-07T04:21:03;5.40;;;3.67;;
75912;SDS011;64592;52.168;21.040;2023-05-07T04:26:07;7.43;;;4.30;;
75912;SDS011;64592;52.168;21.040;2023-05-07T04:31:09;6.25;;;4.57;;
75912;SDS011;64592;52.168;21.040;2023-05-07T04:36:11;7.88;;;5.40;;
75912;SDS011;64592;52.168;21.040;2023-05-07T04:41:14;6.55;;;3.55;;
75912;SDS011;64592;52.168;21.040;2023-05-07T04:46:17;5.53;;;3.78;;
75912;SDS011;64592;52.168;21.040;2023-05-07T04:51:19;5.75;;;3.55;;
75912;SDS011;64592;52.168;21.040;2023-05-07T04:56:22;5.15;;;3.28;;
75912;SDS011;64592;52.168;21.040;2023-05-07T05:01:25;6.10;;;3.70;;
75912;SDS011;64592;52.168;21.040;2023-05-07T05:06:29;6.13;;;2.97;;
75912;SDS011;64592;52.168;21.040;2023-05-07T05:11:32;6.80;;;3.25;;
75912;SDS011;64592;52.168;21.040;2023-05-07T05:16:34;5.20;;;3.50;;
75912;SDS011;64592;52.168;21.040;2023-05-07T05:21:37;5.60;;;3.63;;
75912;SDS011;64592;52.168;21.040;2023-05-07T05:26:41;5.82;;;3.38;;
75912;SDS011;64592;52.168;21.040;2023-05-07T05:31:44;5.53;;;3.67;;
75912;SDS011;64592;52.168;21.040;2023-05-07T05:36:46;5.40;;;3.17;;
75912;SDS011;64592;52.168;21.040;2023-05-07T05:41:49;4.28;;;3.20;;
75912;SDS011;64592;52.168;21.040;2023-05-07T05:46:52;4.78;;;2.80;;
75912;SDS011;64592;52.168;21.040;2023-05-07T05:51:57;3.45;;;2.35;;
75912;SDS011;64592;52.168;21.040;2023-05-07T05:57:00;3.60;;;2.22;;
75912;SDS011;64592;52.168;21.040;2023-05-07T06:02:04;6.25;;;3.03;;
75912;SDS011;64592;52.168;21.040;2023-05-07T06:07:06;3.97;;;2.75;;
75912;SDS011;64592;52.168;21.040;2023-05-07T06:12:11;4.68;;;2.30;;
75912;SDS011;64592;52.168;21.040;2023-05-07T06:17:16;3.28;;;2.05;;
75912;SDS011;64592;52.168;21.040;2023-05-07T06:22:19;2.80;;;2.13;;
75912;SDS011;64592;52.168;21.040;2023-05-07T06:27:24;3.63;;;2.28;;
75912;SDS011;64592;52.168;21.040;2023-05-07T06:32:28;5.97;;;3.03;;
75912;SDS011;64592;52.168;21.040;2023-05-07T06:37:30;3.55;;;2.03;;
75912;SDS011;64592;52.168;21.040;2023-05-07T06:42:35;4.82;;;2.33;;
75912;SDS011;64592;52.168;21.040;2023-05-07T06:47:37;5.40;;;2.78;;
75912;SDS011;64592;52.168;21.040;2023-05-07T06:52:40;4.78;;;2.70;;
75912;SDS011;64592;52.168;21.040;2023-05-07T06:57:43;3.55;;;2.22;;
75912;SDS011;64592;52.168;21.040;2023-05-07T07:02:46;3.33;;;2.33;;
75912;SDS011;64592;52.168;21.040;2023-05-07T07:07:48;3.95;;;2.40;;
75912;SDS011;64592;52.168;21.040;2023-05-07T07:12:54;4.55;;;3.22;;
75912;SDS011;64592;52.168;21.040;2023-05-07T07:17:55;3.80;;;2.42;;
75912;SDS011;64592;52.168;21.040;2023-05-07T07:22:59;5.65;;;3.22;;
75912;SDS011;64592;52.168;21.040;2023-05-07T07:28:03;4.65;;;2.78;;
75912;SDS011;64592;52.168;21.040;2023-05-07T07:33:07;4.20;;;3.17;;
75912;SDS011;64592;52.168;21.040;2023-05-07T07:38:16;4.13;;;2.75;;
75912;SDS011;64592;52.168;21.040;2023-05-07T07:43:19;3.17;;;2.53;;
75912;SDS011;64592;52.168;21.040;2023-05-07T07:48:20;3.55;;;2.30;;
75912;SDS011;64592;52.168;21.040;2023-05-07T07:53:22;4.00;;;2.20;;
75912;SDS011;64592;52.168;21.040;2023-05-07T07:58:30;3.35;;;2.20;;
75912;SDS011;64592;52.168;21.040;2023-05-07T08:03:33;4.07;;;2.30;;
75912;SDS011;64592;52.168;21.040;2023-05-07T08:08:35;3.60;;;2.30;;
75912;SDS011;64592;52.168;21.040;2023-05-07T08:13:39;3.03;;;2.00;;
75912;SDS011;64592;52.168;21.040;2023-05-07T08:18:40;4.40;;;2.33;;
75912;SDS011;64592;52.168;21.040;2023-05-07T08:23:42;2.90;;;2.00;;
75912;SDS011;64592;52.168;21.040;2023-05-07T08:28:45;3.80;;;2.70;;
75912;SDS011;64592;52.168;21.040;2023-05-07T08:33:47;3.75;;;2.33;;
75912;SDS011;64592;52.168;21.040;2023-05-07T08:38:48;4.80;;;2.40;;
75912;SDS011;64592;52.168;21.040;2023-05-07T08:43:52;3.33;;;2.28;;
75912;SDS011;64592;52.168;21.040;2023-05-07T08:48:58;3.15;;;2.20;;
75912;SDS011;64592;52.168;21.040;2023-05-07T08:54:01;4.22;;;2.60;;
75912;SDS011;64592;52.168;21.040;2023-05-07T08:59:04;6.05;;;2.75;;
75912;SDS011;64592;52.168;21.040;2023-05-07T09:04:06;3.22;;;2.17;;
75912;SDS011;64592;52.168;21.040;2023-05-07T09:09:10;5.57;;;2.15;;
75912;SDS011;64592;52.168;21.040;2023-05-07T09:14:21;6.20;;;2.00;;
75912;SDS011;64592;52.168;21.040;2023-05-07T09:19:23;3.47;;;2.15;;
75912;SDS011;64592;52.168;21.040;2023-05-07T09:24:25;3.00;;;2.03;;
75912;SDS011;64592;52.168;21.040;2023-05-07T09:29:31;3.60;;;2.20;;
75912;SDS011;64592;52.168;21.040;2023-05-07T09:34:35;3.17;;;2.13;;
75912;SDS011;64592;52.168;21.040;2023-05-07T09:39:40;3.75;;;2.38;;
75912;SDS011;64592;52.168;21.040;2023-05-07T09:44:44;3.75;;;2.30;;
75912;SDS011;64592;52.168;21.040;2023-05-07T09:49:47;3.35;;;2.25;;
75912;SDS011;64592;52.168;21.040;2023-05-07T09:54:49;4.13;;;2.10;;
75912;SDS011;64592;52.168;21.040;2023-05-07T09:59:54;5.05;;;2.83;;
75912;SDS011;64592;52.168;21.040;2023-05-07T10:04:59;3.65;;;2.47;;
75912;SDS011;64592;52.168;21.040;2023-05-07T10:10:03;4.60;;;2.53;;
75912;SDS011;64592;52.168;21.040;2023-05-07T10:15:09;5.50;;;2.35;;
75912;SDS011;64592;52.168;21.040;2023-05-07T10:20:12;7.78;;;2.22;;
75912;SDS011;64592;52.168;21.040;2023-05-07T10:25:16;2.60;;;1.88;;
75912;SDS011;64592;52.168;21.040;2023-05-07T10:30:26;6.35;;;2.28;;
75912;SDS011;64592;52.168;21.040;2023-05-07T10:35:40;3.85;;;2.28;;
75912;SDS011;64592;52.168;21.040;2023-05-07T10:40:45;3.53;;;2.20;;
75912;SDS011;64592;52.168;21.040;2023-05-07T10:51:18;3.70;;;2.65;;
75912;SDS011;64592;52.168;21.040;2023-05-07T10:56:25;3.15;;;2.22;;
75912;SDS011;64592;52.168;21.040;2023-05-07T11:12:46;4.15;;;2.17;;
75912;SDS011;64592;52.168;21.040;2023-05-07T11:18:01;3.47;;;2.10;;
75912;SDS011;64592;52.168;21.040;2023-05-07T11:23:05;5.63;;;2.45;;
75912;SDS011;64592;52.168;21.040;2023-05-07T11:28:08;3.38;;;2.03;;
75912;SDS011;64592;52.168;21.040;2023-05-07T11:33:12;4.18;;;2.45;;
75912;SDS011;64592;52.168;21.040;2023-05-07T11:38:19;5.32;;;2.17;;
75912;SDS011;64592;52.168;21.040;2023-05-07T11:43:22;4.72;;;1.90;;
75912;SDS011;64592;52.168;21.040;2023-05-07T11:48:28;3.47;;;2.00;;
75912;SDS011;64592;52.168;21.040;2023-05-07T11:53:40;3.28;;;2.35;;
75912;SDS011;64592;52.168;21.040;2023-05-07T11:58:44;3.28;;;2.25;;
75912;SDS011;64592;52.168;21.040;2023-05-07T12:03:50;4.20;;;2.47;;
75912;SDS011;64592;52.168;21.040;2023-05-07T12:08:52;3.38;;;2.30;;
75912;SDS011;64592;52.168;21.040;2023-05-07T12:13:54;3.65;;;2.28;;
75912;SDS011;64592;52.168;21.040;2023-05-07T12:18:58;4.57;;;2.22;;
75912;SDS011;64592;52.168;21.040;2023-05-07T12:24:01;3.67;;;2.35;;
75912;SDS011;64592;52.168;21.040;2023-05-07T12:29:03;2.80;;;1.85;;
75912;SDS011;64592;52.168;21.040;2023-05-07T12:34:07;2.80;;;2.00;;
75912;SDS011;64592;52.168;21.040;2023-05-07T12:39:09;4.05;;;2.10;;
75912;SDS011;64592;52.168;21.040;2023-05-07T12:44:15;3.72;;;2.17;;
75912;SDS011;64592;52.168;21.040;2023-05-07T12:49:20;3.28;;;2.17;;
75912;SDS011;64592;52.168;21.040;2023-05-07T12:54:28;3.08;;;2.28;;
75912;SDS011;64592;52.168;21.040;2023-05-07T12:59:32;2.55;;;1.90;;
75912;SDS011;64592;52.168;21.040;2023-05-07T13:04:37;5.35;;;2.33;;
75912;SDS011;64592;52.168;21.040;2023-05-07T13:09:38;3.83;;;2.25;;
75912;SDS011;64592;52.168;21.040;2023-05-07T13:14:42;3.00;;;2.20;;
75912;SDS011;64592;52.168;21.040;2023-05-07T13:19:45;5.68;;;2.28;;
75912;SDS011;64592;52.168;21.040;2023-05-07T13:24:48;3.40;;;1.92;;
75912;SDS011;64592;52.168;21.040;2023-05-07T13:29:51;4.57;;;2.10;;
75912;SDS011;64592;52.168;21.040;2023-05-07T13:34:54;3.10;;;1.98;;
75912;SDS011;64592;52.168;21.040;2023-05-07T13:39:55;2.80;;;2.00;;
75912;SDS011;64592;52.168;21.040;2023-05-07T13:44:58;3.65;;;1.80;;
75912;SDS011;64592;52.168;21.040;2023-05-07T13:50:04;2.97;;;1.88;;
75912;SDS011;64592;52.168;21.040;2023-05-07T13:55:07;2.47;;;1.55;;
75912;SDS011;64592;52.168;21.040;2023-05-07T14:00:10;3.33;;;1.98;;
75912;SDS011;64592;52.168;21.040;2023-05-07T14:05:15;3.35;;;1.80;;
75912;SDS011;64592;52.168;21.040;2023-05-07T14:10:18;3.63;;;2.20;;
75912;SDS011;64592;52.168;21.040;2023-05-07T14:15:21;3.33;;;2.08;;
75912;SDS011;64592;52.168;21.040;2023-05-07T14:20:26;4.63;;;2.20;;
75912;SDS011;64592;52.168;21.040;2023-05-07T14:25:30;5.97;;;2.20;;
75912;SDS011;64592;52.168;21.040;2023-05-07T14:30:32;2.15;;;1.63;;
75912;SDS011;64592;52.168;21.040;2023-05-07T14:35:42;3.15;;;2.10;;
75912;SDS011;64592;52.168;21.040;2023-05-07T14:40:47;4.72;;;2.20;;
75912;SDS011;64592;52.168;21.040;2023-05-07T14:45:49;5.20;;;1.80;;
75912;SDS011;64592;52.168;21.040;2023-05-07T14:50:52;2.70;;;1.80;;
75912;SDS011;64592;52.168;21.040;2023-05-07T14:55:59;2.17;;;1.88;;
75912;SDS011;64592;52.168;21.040;2023-05-07T15:01:01;3.60;;;2.10;;
75912;SDS011;64592;52.168;21.040;2023-05-07T15:06:04;3.28;;;2.15;;
75912;SDS011;64592;52.168;21.040;2023-05-07T15:11:06;2.70;;;1.45;;
75912;SDS011;64592;52.168;21.040;2023-05-07T15:16:08;3.13;;;1.60;;
75912;SDS011;64592;52.168;21.040;2023-05-07T15:21:12;3.78;;;2.15;;
75912;SDS011;64592;52.168;21.040;2023-05-07T15:26:14;2.75;;;1.90;;
75912;SDS011;64592;52.168;21.040;2023-05-07T15:31:16;3.10;;;1.80;;
75912;SDS011;64592;52.168;21.040;2023-05-07T15:36:20;3.45;;;1.70;;
75912;SDS011;64592;52.168;21.040;2023-05-07T15:41:22;4.30;;;2.20;;
75912;SDS011;64592;52.168;21.040;2023-05-07T15:46:24;3.63;;;2.08;;
75912;SDS011;64592;52.168;21.040;2023-05-07T15:51:30;4.00;;;1.77;;
75912;SDS011;64592;52.168;21.040;2023-05-07T15:56:36;2.65;;;1.90;;
75912;SDS011;64592;52.168;21.040;2023-05-07T16:01:38;4.90;;;1.98;;
75912;SDS011;64592;52.168;21.040;2023-05-07T16:06:42;4.05;;;1.88;;
75912;SDS011;64592;52.168;21.040;2023-05-07T16:11:47;4.47;;;2.22;;
75912;SDS011;64592;52.168;21.040;2023-05-07T16:16:49;3.47;;;2.10;;
75912;SDS011;64592;52.168;21.040;2023-05-07T16:21:52;5.28;;;2.50;;
75912;SDS011;64592;52.168;21.040;2023-05-07T16:26:55;4.10;;;2.20;;
75912;SDS011;64592;52.168;21.040;2023-05-07T16:31:57;4.45;;;2.22;;
75912;SDS011;64592;52.168;21.040;2023-05-07T16:37:00;4.35;;;2.17;;
75912;SDS011;64592;52.168;21.040;2023-05-07T16:42:03;4.32;;;2.17;;
75912;SDS011;64592;52.168;21.040;2023-05-07T16:47:05;2.70;;;1.92;;
75912;SDS011;64592;52.168;21.040;2023-05-07T16:52:09;5.78;;;2.55;;
75912;SDS011;64592;52.168;21.040;2023-05-07T16:57:12;3.50;;;2.50;;
75912;SDS011;64592;52.168;21.040;2023-05-07T17:02:16;3.55;;;2.20;;
75912;SDS011;64592;52.168;21.040;2023-05-07T17:07:24;3.42;;;2.40;;
75912;SDS011;64592;52.168;21.040;2023-05-07T17:12:25;4.15;;;2.30;;
75912;SDS011;64592;52.168;21.040;2023-05-07T17:27:38;3.88;;;2.40;;
75912;SDS011;64592;52.168;21.040;2023-05-07T17:32:40;3.65;;;2.03;;
75912;SDS011;64592;52.168;21.040;2023-05-07T17:37:45;3.85;;;2.50;;
75912;SDS011;64592;52.168;21.040;2023-05-07T17:42:51;2.85;;;2.10;;
75912;SDS011;64592;52.168;21.040;2023-05-07T17:47:53;3.83;;;2.42;;
75912;SDS011;64592;52.168;21.040;2023-05-07T17:52:58;7.10;;;2.38;;
75912;SDS011;64592;52.168;21.040;2023-05-07T17:58:01;3.63;;;2.42;;
75912;SDS011;64592;52.168;21.040;2023-05-07T18:03:10;4.63;;;2.28;;
75912;SDS011;64592;52.168;21.040;2023-05-07T18:08:13;5.85;;;2.60;;
75912;SDS011;64592;52.168;21.040;2023-05-07T18:13:17;5.80;;;2.75;;
75912;SDS011;64592;52.168;21.040;2023-05-07T18:18:20;4.60;;;2.75;;
75912;SDS011;64592;52.168;21.040;2023-05-07T18:28:29;3.75;;;2.60;;
75912;SDS011;64592;52.168;21.040;2023-05-07T18:33:31;6.68;;;2.70;;
75912;SDS011;64592;52.168;21.040;2023-05-07T18:38:34;5.78;;;2.97;;
75912;SDS011;64592;52.168;21.040;2023-05-07T18:43:35;7.10;;;2.97;;
75912;SDS011;64592;52.168;21.040;2023-05-07T18:48:39;5.18;;;3.42;;
75912;SDS011;64592;52.168;21.040;2023-05-07T18:53:42;3.80;;;2.83;;
75912;SDS011;64592;52.168;21.040;2023-05-07T18:58:47;5.80;;;2.90;;
75912;SDS011;64592;52.168;21.040;2023-05-07T19:03:49;5.50;;;3.80;;
75912;SDS011;64592;52.168;21.040;2023-05-07T19:08:52;7.25;;;3.42;;
75912;SDS011;64592;52.168;21.040;2023-05-07T19:13:55;6.63;;;3.28;;
75912;SDS011;64592;52.168;21.040;2023-05-07T19:18:56;5.18;;;3.60;;
75912;SDS011;64592;52.168;21.040;2023-05-07T19:24:00;5.38;;;3.45;;
75912;SDS011;64592;52.168;21.040;2023-05-07T19:29:02;6.97;;;3.42;;
75912;SDS011;64592;52.168;21.040;2023-05-07T19:34:07;4.43;;;3.28;;
75912;SDS011;64592;52.168;21.040;2023-05-07T19:39:12;5.03;;;3.25;;
75912;SDS011;64592;52.168;21.040;2023-05-07T19:44:15;4.78;;;3.20;;
75912;SDS011;64592;52.168;21.040;2023-05-07T19:49:17;7.53;;;3.20;;
75912;SDS011;64592;52.168;21.040;2023-05-07T19:54:20;5.60;;;3.17;;
75912;SDS011;64592;52.168;21.040;2023-05-07T19:59:22;5.68;;;3.35;;
75912;SDS011;64592;52.168;21.040;2023-05-07T20:04:24;6.03;;;3.17;;
75912;SDS011;64592;52.168;21.040;2023-05-07T20:09:32;4.53;;;2.83;;
75912;SDS011;64592;52.168;21.040;2023-05-07T20:14:34;6.68;;;4.20;;
75912;SDS011;64592;52.168;21.040;2023-05-07T20:19:38;5.18;;;3.30;;
75912;SDS011;64592;52.168;21.040;2023-05-07T20:24:41;4.95;;;3.22;;
75912;SDS011;64592;52.168;21.040;2023-05-07T20:29:43;6.65;;;3.80;;
75912;SDS011;64592;52.168;21.040;2023-05-07T20:34:44;5.15;;;3.47;;
75912;SDS011;64592;52.168;21.040;2023-05-07T20:39:48;4.70;;;3.95;;
75912;SDS011;64592;52.168;21.040;2023-05-07T20:44:49;6.10;;;3.67;;
75912;SDS011;64592;52.168;21.040;2023-05-07T20:49:54;7.65;;;4.82;;
75912;SDS011;64592;52.168;21.040;2023-05-07T20:54:59;12.68;;;6.07;;
75912;SDS011;64592;52.168;21.040;2023-05-07T21:00:02;16.08;;;6.15;;
75912;SDS011;64592;52.168;21.040;2023-05-07T21:05:05;8.20;;;5.45;;
75912;SDS011;64592;52.168;21.040;2023-05-07T21:10:09;10.45;;;5.60;;
75912;SDS011;64592;52.168;21.040;2023-05-07T21:15:12;8.27;;;5.00;;
75912;SDS011;64592;52.168;21.040;2023-05-07T21:20:13;5.97;;;4.50;;
75912;SDS011;64592;52.168;21.040;2023-05-07T21:25:17;10.02;;;5.13;;
75912;SDS011;64592;52.168;21.040;2023-05-07T21:30:18;10.20;;;5.90;;
75912;SDS011;64592;52.168;21.040;2023-05-07T21:35:20;7.45;;;5.05;;
75912;SDS011;64592;52.168;21.040;2023-05-07T21:40:24;10.50;;;6.10;;
75912;SDS011;64592;52.168;21.040;2023-05-07T21:45:25;9.85;;;6.50;;
75912;SDS011;64592;52.168;21.040;2023-05-07T21:50:28;12.15;;;7.07;;
75912;SDS011;64592;52.168;21.040;2023-05-07T21:55:31;14.38;;;7.50;;
75912;SDS011;64592;52.168;21.040;2023-05-07T22:00:33;13.32;;;6.90;;
75912;SDS011;64592;52.168;21.040;2023-05-07T22:05:35;12.98;;;7.93;;
75912;SDS011;64592;52.168;21.040;2023-05-07T22:10:38;14.13;;;7.55;;
75912;SDS011;64592;52.168;21.040;2023-05-07T22:15:41;14.48;;;9.13;;
75912;SDS011;64592;52.168;21.040;2023-05-07T22:20:45;15.02;;;8.57;;
75912;SDS011;64592;52.168;21.040;2023-05-07T22:25:48;19.77;;;9.55;;
75912;SDS011;64592;52.168;21.040;2023-05-07T22:30:50;17.65;;;8.55;;
75912;SDS011;64592;52.168;21.040;2023-05-07T22:35:54;15.07;;;8.90;;
75912;SDS011;64592;52.168;21.040;2023-05-07T22:40:58;14.57;;;8.68;;
75912;SDS011;64592;52.168;21.040;2023-05-07T22:46:01;14.15;;;7.60;;
75912;SDS011;64592;52.168;21.040;2023-05-07T22:51:03;15.15;;;8.07;;
75912;SDS011;64592;52.168;21.040;2023-05-07T22:56:06;13.15;;;8.55;;
75912;SDS011;64592;52.168;21.040;2023-05-07T23:01:10;12.82;;;8.70;;
75912;SDS011;64592;52.168;21.040;2023-05-07T23:06:13;14.20;;;8.15;;
75912;SDS011;64592;52.168;21.040;2023-05-07T23:11:16;14.38;;;8.70;;
75912;SDS011;64592;52.168;21.040;2023-05-07T23:16:18;13.63;;;8.45;;
75912;SDS011;64592;52.168;21.040;2023-05-07T23:21:19;13.85;;;8.98;;
75912;SDS011;64592;52.168;21.040;2023-05-07T23:26:27;12.93;;;8.52;;
75912;SDS011;64592;52.168;21.040;2023-05-07T23:31:29;13.15;;;8.60;;
75912;SDS011;64592;52.168;21.040;2023-05-07T23:36:33;12.85;;;9.48;;
75912;SDS011;64592;52.168;21.040;2023-05-07T23:41:36;11.98;;;7.55;;
75912;SDS011;64592;52.168;21.040;2023-05-07T23:46:38;15.52;;;8.02;;
75912;SDS011;64592;52.168;21.040;2023-05-07T23:51:40;11.40;;;7.18;;
75912;SDS011;64592;52.168;21.040;2023-05-07T23:56:43;14.90;;;8.75;;
